createdAt,value
2019-03-08T00:02:26.176Z,80.04
2019-03-08T00:04:56.650Z,80.16
2019-03-08T00:07:27.079Z,80.31
2019-03-08T00:09:57.716Z,80.56
2019-03-08T00:12:38.997Z,80.69
2019-03-08T00:15:11.218Z,80.88
2019-03-08T00:17:44.013Z,80.88
2019-03-08T00:20:14.701Z,80.62
2019-03-08T00:22:45.123Z,80.45
2019-03-08T00:25:17.063Z,80.21
2019-03-08T00:27:47.468Z,79.86
2019-03-08T00:30:17.881Z,79.90
2019-03-08T00:32:48.514Z,79.67
2019-03-08T00:35:18.942Z,79.57
2019-03-08T00:37:50.078Z,79.70
2019-03-08T00:40:20.483Z,79.62
2019-03-08T00:42:50.909Z,79.81
2019-03-08T00:45:21.732Z,79.89
2019-03-08T00:47:52.141Z,79.84
2019-03-08T00:50:24.301Z,80.20
2019-03-08T00:52:54.723Z,80.10
2019-03-08T00:55:25.157Z,80.20
2019-03-08T00:57:55.862Z,80.51
2019-03-08T01:00:27.314Z,80.41
2019-03-08T01:02:57.827Z,80.81
2019-03-08T01:05:30.168Z,80.72
2019-03-08T01:08:00.666Z,80.85
2019-03-08T01:10:31.294Z,81.07
2019-03-08T01:13:01.789Z,80.95
2019-03-08T01:15:32.257Z,81.16
2019-03-08T01:18:02.736Z,81.34
2019-03-08T01:20:33.197Z,81.53
2019-03-08T01:23:04.426Z,81.37
2019-03-08T01:25:36.332Z,81.68
2019-03-08T01:28:09.876Z,81.94
2019-03-08T01:30:41.200Z,82.20
2019-03-08T01:33:13.240Z,82.28
2019-03-08T01:35:44.861Z,82.62
2019-03-08T01:38:15.278Z,82.98
2019-03-08T01:40:45.722Z,83.13
2019-03-08T01:43:17.018Z,83.41
2019-03-08T01:45:48.614Z,83.89
2019-03-08T01:48:19.075Z,84.23
2019-03-08T01:50:50.407Z,84.32
2019-03-08T01:53:22.382Z,84.45
2019-03-08T01:55:53.833Z,84.64
2019-03-08T01:58:24.263Z,84.50
2019-03-08T02:00:54.731Z,84.64
2019-03-08T02:03:25.699Z,84.71
2019-03-08T02:05:56.096Z,84.89
2019-03-08T02:08:34.737Z,85.18
2019-03-08T02:11:05.199Z,85.17
2019-03-08T02:13:37.070Z,85.12
2019-03-08T02:16:07.615Z,84.90
2019-03-08T02:18:39.625Z,84.77
2019-03-08T02:21:10.091Z,84.65
2019-03-08T02:23:40.504Z,84.46
2019-03-08T02:26:10.998Z,84.79
2019-03-08T02:28:41.439Z,84.76
2019-03-08T02:31:11.864Z,84.77
2019-03-08T02:33:42.287Z,84.98
2019-03-08T02:36:14.015Z,84.93
2019-03-08T02:38:44.423Z,84.91
2019-03-08T02:41:14.901Z,84.75
2019-03-08T02:43:45.375Z,84.64
2019-03-08T02:46:15.826Z,84.51
2019-03-08T02:48:46.818Z,84.69
2019-03-08T02:51:18.533Z,84.59
2019-03-08T02:53:48.974Z,84.62
2019-03-08T02:56:20.054Z,84.67
2019-03-08T02:58:51.454Z,84.75
2019-03-08T03:01:23.183Z,84.62
2019-03-08T03:03:53.715Z,84.42
2019-03-08T03:06:27.269Z,84.35
2019-03-08T03:08:57.812Z,84.39
2019-03-08T03:11:29.831Z,84.57
2019-03-08T03:14:00.261Z,84.50
2019-03-08T03:16:30.860Z,84.50
2019-03-08T03:19:02.253Z,84.69
2019-03-08T03:21:32.694Z,84.47
2019-03-08T03:24:03.234Z,84.49
2019-03-08T03:26:33.754Z,84.39
2019-03-08T03:29:04.166Z,84.38
2019-03-08T03:31:34.653Z,84.39
2019-03-08T03:34:06.613Z,84.31
2019-03-08T03:36:37.147Z,84.23
2019-03-08T03:39:07.619Z,83.99
2019-03-08T03:41:38.092Z,84.11
2019-03-08T03:44:08.592Z,84.06
2019-03-08T03:46:39.067Z,84.37
2019-03-08T03:49:09.547Z,84.57
2019-03-08T03:51:40.067Z,84.60
2019-03-08T03:54:10.571Z,84.29
2019-03-08T03:56:40.984Z,84.16
2019-03-08T03:59:11.454Z,84.21
2019-03-08T04:01:43.519Z,84.54
2019-03-08T04:04:13.979Z,84.66
2019-03-08T04:06:44.390Z,84.20
2019-03-08T04:09:14.901Z,84.22
2019-03-08T04:11:45.336Z,84.15
2019-03-08T04:14:15.836Z,84.13
2019-03-08T04:16:46.445Z,84.18
2019-03-08T04:19:16.905Z,84.53
2019-03-08T04:21:47.343Z,84.57
2019-03-08T04:24:17.776Z,84.38
2019-03-08T04:26:49.781Z,83.99
2019-03-08T04:29:21.156Z,84.20
2019-03-08T04:31:51.592Z,84.29
2019-03-08T04:34:39.113Z,83.96
2019-03-08T04:37:09.517Z,84.18
2019-03-08T04:39:39.971Z,83.95
2019-03-08T04:42:10.417Z,83.80
2019-03-08T04:44:41.460Z,83.70
2019-03-08T04:47:13.395Z,82.98
2019-03-08T04:49:43.988Z,82.48
2019-03-08T04:52:14.375Z,81.71
2019-03-08T04:54:44.785Z,81.30
2019-03-08T04:57:15.157Z,81.44
2019-03-08T04:59:46.647Z,81.40
2019-03-08T05:02:17.871Z,81.69
2019-03-08T05:04:48.321Z,81.75
2019-03-08T05:07:18.797Z,82.24
2019-03-08T05:09:49.256Z,82.03
2019-03-08T05:12:19.780Z,81.69
2019-03-08T05:14:50.315Z,81.79
2019-03-08T05:17:22.867Z,81.88
2019-03-08T05:19:54.569Z,81.51
2019-03-08T05:22:29.730Z,82.12
2019-03-08T05:25:02.693Z,82.78
2019-03-08T05:27:33.603Z,82.68
2019-03-08T05:30:04.798Z,83.23
2019-03-08T05:32:38.540Z,83.07
2019-03-08T05:35:09.889Z,83.41
2019-03-08T05:37:43.404Z,83.49
2019-03-08T05:40:17.807Z,83.67
2019-03-08T05:42:48.461Z,84.02
2019-03-08T05:45:20.409Z,84.03
2019-03-08T05:47:51.561Z,83.74
2019-03-08T05:50:28.660Z,84.39
2019-03-08T05:52:59.278Z,84.53
2019-03-08T05:58:21.322Z,84.45
2019-03-08T06:00:53.341Z,84.49
2019-03-08T06:03:29.218Z,84.25
2019-03-08T06:06:07.684Z,84.00
2019-03-08T06:08:41.189Z,83.55
2019-03-08T06:11:12.080Z,82.95
2019-03-08T06:13:42.618Z,83.48
2019-03-08T06:16:14.203Z,83.88
2019-03-08T06:18:46.092Z,83.28
2019-03-08T06:21:17.951Z,83.02
2019-03-08T06:23:53.348Z,82.79
2019-03-08T06:26:24.445Z,82.60
2019-03-08T06:29:00.332Z,82.16
2019-03-08T06:31:32.315Z,81.70
2019-03-08T06:34:10.234Z,82.00
2019-03-08T06:36:42.214Z,81.87
2019-03-08T06:39:15.177Z,81.61
2019-03-08T06:41:47.861Z,81.36
2019-03-08T06:47:09.842Z,81.40
2019-03-08T06:49:43.304Z,81.67
2019-03-08T06:52:14.078Z,81.27
2019-03-08T06:57:36.284Z,80.14
2019-03-08T07:00:34.146Z,80.10
2019-03-08T07:03:07.933Z,79.76
2019-03-08T07:05:41.521Z,79.97
2019-03-08T07:08:13.673Z,79.11
2019-03-08T07:10:49.293Z,78.53
2019-03-08T07:13:28.828Z,78.65
2019-03-08T07:16:14.955Z,77.96
2019-03-08T07:18:46.571Z,78.07
2019-03-08T07:24:33.014Z,77.84
2019-03-08T07:27:25.487Z,76.90
2019-03-08T07:30:13.932Z,76.58
2019-03-08T07:32:51.248Z,75.96
2019-03-08T07:35:55.551Z,76.07
2019-03-08T07:38:58.287Z,74.52
2019-03-08T07:41:37.714Z,75.16
2019-03-08T07:44:38.959Z,73.77
2019-03-08T07:47:49.486Z,75.13
2019-03-08T07:50:05.474Z,73.72
2019-03-08T07:52:55.292Z,72.18
2019-03-08T07:55:47.527Z,71.11
2019-03-08T07:58:37.079Z,70.37
2019-03-08T08:01:21.869Z,70.18
2019-03-08T08:04:11.865Z,70.85
2019-03-08T08:06:59.401Z,69.84
2019-03-08T08:09:46.678Z,68.74
2019-03-08T08:12:24.326Z,68.52
2019-03-08T08:15:02.752Z,68.29
2019-03-08T08:20:40.498Z,66.26
2019-03-08T08:23:21.433Z,65.11
2019-03-08T08:26:11.636Z,63.93
2019-03-08T08:29:12.904Z,63.96
2019-03-08T08:32:06.353Z,63.30
2019-03-08T08:34:41.335Z,62.55
2019-03-08T08:37:31.606Z,61.07
2019-03-08T08:40:22.886Z,59.76
2019-03-08T08:43:12.307Z,58.38
2019-03-08T08:46:09.515Z,57.96
2019-03-08T08:52:00.499Z,56.68
2019-03-08T08:54:43.842Z,56.15
2019-03-08T08:57:34.135Z,55.88
2019-03-08T09:00:19.608Z,53.81
2019-03-08T09:03:20.140Z,53.40
2019-03-08T09:06:02.092Z,52.13
2019-03-08T09:08:53.689Z,52.07
2019-03-08T09:11:52.515Z,50.26
2019-03-08T09:14:53.949Z,49.76
2019-03-08T09:17:41.812Z,49.53
2019-03-08T09:20:32.586Z,49.55
2019-03-08T09:23:20.755Z,48.84
2019-03-08T09:26:11.965Z,47.67
2019-03-08T09:28:45.740Z,47.78
2019-03-08T09:31:35.265Z,47.82
2019-03-08T09:34:19.269Z,47.54
2019-03-08T09:36:56.981Z,47.29
2019-03-08T09:39:47.252Z,45.80
2019-03-08T09:42:38.582Z,44.53
2019-03-08T09:45:21.412Z,44.29
2019-03-08T09:48:00.933Z,44.35
2019-03-08T09:50:49.044Z,43.71
2019-03-08T09:53:25.662Z,42.88
2019-03-08T09:56:01.242Z,42.85
2019-03-08T09:58:35.742Z,42.63
2019-03-08T10:01:23.855Z,43.63
2019-03-08T10:04:08.995Z,41.70
2019-03-08T10:06:49.917Z,40.76
2019-03-08T10:09:41.021Z,39.63
2019-03-08T10:12:18.749Z,38.62
2019-03-08T10:15:01.748Z,39.02
2019-03-08T10:17:43.866Z,38.38
2019-03-08T10:20:30.767Z,38.65
2019-03-08T10:23:19.948Z,38.79
2019-03-08T10:25:47.669Z,37.90
2019-03-08T10:28:27.721Z,38.23
2019-03-08T10:31:02.899Z,38.63
2019-03-08T10:33:46.925Z,39.03
2019-03-08T10:36:42.040Z,38.81
2019-03-08T10:39:35.602Z,38.38
2019-03-08T10:42:23.644Z,37.83
2019-03-08T10:45:02.617Z,37.90
2019-03-08T10:47:55.781Z,37.75
2019-03-08T10:50:21.201Z,38.59
2019-03-08T10:52:58.504Z,38.53
2019-03-08T10:55:49.335Z,38.90
2019-03-08T10:58:29.959Z,38.74
2019-03-08T11:01:08.136Z,39.55
2019-03-08T11:03:55.807Z,40.13
2019-03-08T11:06:34.035Z,39.67
2019-03-08T11:09:08.230Z,39.48
2019-03-08T11:11:49.209Z,38.88
2019-03-08T11:14:37.264Z,38.41
2019-03-08T11:17:28.208Z,39.76
2019-03-08T11:20:26.658Z,38.67
2019-03-08T11:23:11.689Z,38.85
2019-03-08T11:25:53.083Z,39.17
2019-03-08T11:28:51.188Z,38.84
2019-03-08T11:32:05.314Z,39.66
2019-03-08T11:34:13.290Z,39.58
2019-03-08T11:36:56.012Z,39.32
2019-03-08T11:39:45.365Z,38.96
2019-03-08T11:42:25.915Z,38.75
2019-03-08T11:45:07.442Z,38.89
2019-03-08T11:48:05.043Z,38.93
2019-03-08T11:50:46.616Z,38.59
2019-03-08T11:53:40.299Z,38.90
2019-03-08T11:56:21.560Z,39.22
2019-03-08T11:59:02.913Z,39.94
2019-03-08T12:01:39.264Z,39.78
2019-03-08T12:04:24.660Z,40.07
2019-03-08T12:07:10.580Z,39.75
2019-03-08T12:10:02.922Z,40.33
2019-03-08T12:12:51.234Z,39.65
2019-03-08T12:15:39.052Z,40.13
2019-03-08T12:18:29.328Z,39.96
2019-03-08T12:21:02.722Z,39.78
2019-03-08T12:23:39.043Z,40.05
2019-03-08T12:26:30.991Z,39.87
2019-03-08T12:29:12.744Z,40.74
2019-03-08T12:31:46.294Z,40.19
2019-03-08T12:34:39.083Z,40.39
2019-03-08T12:37:20.218Z,40.57
2019-03-08T12:39:57.010Z,41.30
2019-03-08T12:42:44.380Z,41.35
2019-03-08T12:45:20.809Z,41.75
2019-03-08T12:47:59.218Z,41.98
2019-03-08T12:50:34.252Z,42.34
2019-03-08T12:53:26.838Z,42.19
2019-03-08T12:56:23.319Z,42.34
2019-03-08T12:59:01.155Z,42.29
2019-03-08T13:02:09.784Z,42.73
2019-03-08T13:05:06.654Z,42.44
2019-03-08T13:10:59.006Z,42.48
2019-03-08T13:13:34.325Z,42.18
2019-03-08T13:16:07.398Z,41.98
2019-03-08T13:18:50.393Z,41.89
2019-03-08T13:22:10.760Z,41.97
2019-03-08T13:24:06.854Z,41.78
2019-03-08T13:26:52.142Z,41.78
2019-03-08T13:29:25.202Z,41.97
2019-03-08T13:31:52.939Z,41.41
2019-03-08T13:34:24.842Z,41.27
2019-03-08T13:36:59.977Z,40.87
2019-03-08T13:39:45.703Z,40.02
2019-03-08T13:42:44.694Z,39.79
2019-03-08T13:45:16.787Z,38.98
2019-03-08T13:49:55.455Z,38.51
2019-03-08T13:50:50.745Z,38.77
2019-03-08T13:53:21.873Z,37.87
2019-03-08T13:56:04.126Z,37.23
2019-03-08T14:02:27.114Z,37.15
2019-03-08T14:05:12.078Z,36.45
2019-03-08T14:09:56.169Z,37.02
2019-03-08T14:10:42.581Z,36.72
2019-03-08T14:13:15.922Z,36.60
2019-03-08T14:15:46.539Z,36.63
2019-03-08T14:18:21.382Z,36.77
2019-03-08T14:20:52.395Z,36.61
2019-03-08T14:23:22.866Z,36.42
2019-03-08T14:25:53.615Z,36.21
2019-03-08T14:28:25.288Z,36.30
2019-03-08T14:31:13.957Z,36.39
2019-03-08T14:33:44.677Z,36.34
2019-03-08T14:36:15.226Z,35.98
2019-03-08T14:39:08.011Z,35.89
2019-03-08T14:41:40.940Z,36.03
2019-03-08T14:44:13.333Z,36.27
2019-03-08T14:46:45.506Z,35.73
2019-03-08T16:44:36.591Z,38.06
2019-03-08T20:50:19.728Z,48.99
2019-03-08T20:52:50.385Z,48.69
2019-03-08T20:55:20.804Z,48.69
2019-03-08T20:57:53.754Z,48.31
2019-03-08T21:00:28.607Z,48.26
2019-03-08T21:03:02.290Z,48.37
2019-03-08T21:05:38.820Z,48.39
2019-03-08T21:08:09.423Z,48.50
2019-03-08T21:10:41.663Z,48.67
2019-03-08T21:13:18.311Z,48.48
2019-03-08T21:15:55.534Z,48.80
2019-03-08T21:18:25.477Z,48.45
2019-03-08T21:20:56.203Z,48.43
2019-03-08T21:23:26.835Z,48.64
2019-03-08T21:25:58.448Z,48.42
2019-03-08T21:28:29.021Z,49.03
2019-03-08T21:33:51.544Z,49.41
2019-03-08T21:36:21.772Z,49.58
2019-03-08T21:38:52.651Z,49.38
2019-03-08T21:41:24.023Z,49.52
2019-03-08T21:43:54.604Z,49.83
2019-03-08T21:46:25.096Z,49.75
2019-03-08T21:48:55.539Z,49.73
2019-03-08T21:51:26.115Z,49.95
2019-03-08T21:54:03.220Z,49.79
2019-03-08T21:56:33.750Z,49.96
2019-03-08T21:59:24.730Z,49.74
2019-03-08T22:01:47.997Z,50.05
2019-03-08T22:04:30.359Z,49.92
2019-03-08T22:07:00.567Z,50.00
2019-03-08T22:09:43.459Z,50.25
2019-03-08T22:12:26.928Z,49.98
2019-03-08T22:15:00.365Z,50.27
2019-03-08T22:17:52.454Z,49.88
2019-03-08T22:20:32.030Z,50.05
2019-03-08T22:23:05.780Z,50.08
2019-03-08T22:25:37.898Z,50.09
2019-03-08T22:28:14.346Z,50.18
2019-03-08T22:30:51.888Z,50.21
2019-03-08T22:33:24.188Z,50.19
2019-03-08T22:35:57.101Z,50.60
2019-03-08T22:38:27.573Z,50.56
2019-03-08T22:40:58.013Z,50.32
2019-03-08T22:43:28.498Z,50.45
2019-03-08T22:46:00.178Z,50.75
2019-03-08T22:48:30.628Z,50.54
2019-03-08T22:51:02.351Z,50.79
2019-03-08T22:53:34.447Z,50.93
2019-03-08T22:56:10.717Z,50.92
2019-03-08T22:58:43.605Z,51.04
2019-03-08T23:01:14.762Z,51.14
2019-03-08T23:03:45.249Z,51.29
2019-03-08T23:06:16.797Z,51.33
2019-03-08T23:08:47.241Z,51.35
2019-03-08T23:11:17.767Z,51.43
2019-03-08T23:13:48.231Z,51.49
2019-03-08T23:16:18.625Z,51.78
2019-03-08T23:18:49.072Z,51.96
2019-03-08T23:21:19.520Z,51.70
2019-03-08T23:26:42.415Z,51.64
2019-03-08T23:29:17.523Z,51.67
2019-03-08T23:32:00.628Z,51.63
2019-03-08T23:34:31.571Z,51.71
2019-03-08T23:37:01.919Z,51.71
2019-03-08T23:39:32.401Z,51.79
2019-03-08T23:42:02.869Z,51.97
2019-03-08T23:44:33.297Z,52.03
2019-03-08T23:47:04.647Z,52.19
2019-03-08T23:49:35.011Z,52.65
2019-03-08T23:52:21.439Z,52.67
2019-03-08T23:54:51.898Z,52.59
2019-03-08T23:57:25.059Z,53.17
2019-03-08T23:59:55.542Z,53.07
